createdAt,value
2023-04-28T00:02:03.849Z,48616.75
2023-04-28T00:04:30.439Z,48605.00
2023-04-28T00:06:57.141Z,48636.34
2023-04-28T00:09:24.128Z,48608.91
2023-04-28T00:11:50.523Z,48601.06
2023-04-28T00:14:17.317Z,48612.84
2023-04-28T00:16:44.044Z,48634.38
2023-04-28T00:19:10.829Z,48605.00
2023-04-28T00:21:37.217Z,48608.91
2023-04-28T00:24:03.773Z,48620.66
2023-04-28T00:26:30.265Z,48608.91
2023-04-28T00:28:56.691Z,48608.91
2023-04-28T00:31:23.121Z,48614.78
2023-04-28T00:33:49.505Z,48614.78
2023-04-28T00:36:16.698Z,48606.94
2023-04-28T00:38:43.226Z,48632.41
2023-04-28T00:41:11.349Z,48632.41
2023-04-28T00:43:48.700Z,48618.72
2023-04-28T00:46:22.519Z,48628.50
2023-04-28T00:48:50.385Z,48638.28
2023-04-28T00:51:17.542Z,48640.25
2023-04-28T00:53:45.341Z,48610.88
2023-04-28T00:56:12.243Z,48616.75
2023-04-28T00:58:39.111Z,48620.66
2023-04-28T01:01:07.941Z,48632.41
2023-04-28T01:03:37.950Z,48608.91
2023-04-28T01:06:09.531Z,48620.66
2023-04-28T01:08:37.868Z,48597.16
2023-04-28T01:11:04.385Z,48605.00
2023-04-28T01:13:30.809Z,48612.84
2023-04-28T01:15:57.297Z,48608.91
2023-04-28T01:18:24.677Z,48597.16
2023-04-28T01:20:51.087Z,48628.50
2023-04-28T01:23:18.851Z,48630.47
2023-04-28T01:25:45.233Z,48597.16
2023-04-28T01:28:11.988Z,48620.66
2023-04-28T01:30:38.447Z,48608.91
2023-04-28T01:33:05.205Z,48614.78
2023-04-28T01:35:31.739Z,48605.00
2023-04-28T01:37:58.335Z,48626.53
2023-04-28T01:40:24.828Z,48585.41
2023-04-28T01:42:51.562Z,48626.53
2023-04-28T01:45:17.971Z,48618.72
2023-04-28T01:47:44.634Z,48605.00
2023-04-28T01:50:11.676Z,48616.75
2023-04-28T01:52:38.383Z,48593.25
2023-04-28T01:55:05.717Z,48628.50
2023-04-28T01:57:33.576Z,48597.16
2023-04-28T02:00:00.678Z,48597.16
2023-04-28T02:02:27.736Z,48612.84
2023-04-28T02:04:54.256Z,48589.31
2023-04-28T02:07:21.098Z,48605.00
2023-04-28T02:09:47.644Z,48620.66
2023-04-28T02:12:14.225Z,48632.41
2023-04-28T02:14:41.094Z,48597.16
2023-04-28T02:17:07.577Z,48614.78
2023-04-28T02:19:34.149Z,48608.91
2023-04-28T02:22:00.706Z,48616.75
2023-04-28T02:24:27.454Z,48636.34
2023-04-28T02:26:54.035Z,48595.19
2023-04-28T02:29:20.586Z,48581.50
2023-04-28T02:31:47.067Z,48612.84
2023-04-28T02:34:14.781Z,48575.63
2023-04-28T02:36:41.416Z,48618.72
2023-04-28T02:39:08.245Z,48612.84
2023-04-28T02:41:34.824Z,48612.84
2023-04-28T02:44:01.374Z,48616.75
2023-04-28T02:46:27.892Z,48620.66
2023-04-28T02:48:54.722Z,48593.25
2023-04-28T02:51:21.221Z,48638.28
2023-04-28T02:53:48.000Z,48606.94
2023-04-28T02:56:14.504Z,48608.91
2023-04-28T02:58:41.436Z,48593.25
2023-04-28T03:01:07.927Z,48616.75
2023-04-28T03:03:34.693Z,48628.50
2023-04-28T03:06:01.421Z,48593.25
2023-04-28T03:08:27.838Z,48605.00
2023-04-28T03:10:54.236Z,48605.00
2023-04-28T03:13:20.627Z,48593.25
2023-04-28T03:15:47.010Z,48597.16
2023-04-28T03:18:13.422Z,48577.56
2023-04-28T03:20:39.811Z,48612.84
2023-04-28T03:23:06.200Z,48616.75
2023-04-28T03:25:32.661Z,48595.19
2023-04-28T03:27:59.109Z,48608.91
2023-04-28T03:30:25.514Z,48605.00
2023-04-28T03:32:51.930Z,48628.50
2023-04-28T03:35:18.470Z,48599.13
2023-04-28T03:37:44.873Z,48605.00
2023-04-28T03:40:11.785Z,48601.06
2023-04-28T03:42:38.224Z,48620.66
2023-04-28T03:45:05.238Z,48593.25
2023-04-28T03:47:31.635Z,48597.16
2023-04-28T03:49:59.208Z,48591.28
2023-04-28T03:52:26.271Z,48585.41
2023-04-28T03:54:52.701Z,48605.00
2023-04-28T03:57:19.065Z,48593.25
2023-04-28T03:59:45.610Z,48595.19
2023-04-28T04:02:12.035Z,48632.41
2023-04-28T04:04:38.881Z,48630.47
2023-04-28T04:07:05.969Z,48601.06
2023-04-28T04:09:32.388Z,48634.38
2023-04-28T04:11:59.150Z,48632.41
2023-04-28T04:14:25.549Z,48605.00
2023-04-28T04:16:51.923Z,48606.94
2023-04-28T04:19:18.370Z,48597.16
2023-04-28T04:21:44.739Z,48601.06
2023-04-28T04:24:11.203Z,48608.91
2023-04-28T04:26:37.632Z,48620.66
2023-04-28T04:29:03.992Z,48605.00
2023-04-28T04:31:30.836Z,48581.50
2023-04-28T04:33:57.891Z,48616.75
2023-04-28T04:36:24.504Z,48589.31
2023-04-28T04:38:52.596Z,48603.03
2023-04-28T04:41:21.049Z,48612.84
2023-04-28T04:43:47.530Z,48620.66
2023-04-28T04:46:14.958Z,48616.75
2023-04-28T04:48:41.345Z,48581.50
2023-04-28T04:51:07.906Z,48603.03
2023-04-28T04:53:34.400Z,48585.41
2023-04-28T04:56:01.441Z,48612.84
2023-04-28T04:58:28.089Z,48593.25
2023-04-28T05:00:54.570Z,48601.06
2023-04-28T05:03:21.869Z,48595.19
2023-04-28T05:05:48.899Z,48593.25
2023-04-28T05:08:15.320Z,48601.06
2023-04-28T05:10:41.738Z,48589.31
2023-04-28T05:13:08.150Z,48597.16
2023-04-28T05:15:34.977Z,48589.31
2023-04-28T05:18:06.456Z,48612.84
2023-04-28T05:20:33.161Z,48595.19
2023-04-28T05:22:59.545Z,48585.41
2023-04-28T05:25:26.557Z,48601.06
2023-04-28T05:27:52.935Z,48605.00
2023-04-28T05:30:19.437Z,48603.03
2023-04-28T05:32:45.852Z,48616.75
2023-04-28T05:35:12.502Z,48605.00
2023-04-28T05:37:39.738Z,48620.66
2023-04-28T05:40:08.113Z,48616.75
2023-04-28T05:42:34.505Z,48589.31
2023-04-28T05:45:01.010Z,48628.50
2023-04-28T05:47:27.737Z,48597.16
2023-04-28T05:49:54.123Z,48618.72
2023-04-28T05:52:20.498Z,48616.75
2023-04-28T05:54:46.860Z,48577.56
2023-04-28T05:57:13.313Z,48610.88
2023-04-28T05:59:39.688Z,48620.66
2023-04-28T06:02:06.762Z,48599.13
2023-04-28T06:04:33.445Z,48620.66
2023-04-28T06:07:00.526Z,48626.53
2023-04-28T06:09:26.921Z,48593.25
2023-04-28T06:11:53.329Z,48601.06
2023-04-28T06:14:19.955Z,48605.00
2023-04-28T06:16:46.810Z,48606.94
2023-04-28T06:19:14.583Z,48626.53
2023-04-28T06:21:41.280Z,48601.06
2023-04-28T06:24:07.654Z,48616.75
2023-04-28T06:26:34.016Z,48597.16
2023-04-28T06:29:00.541Z,48605.00
2023-04-28T06:31:27.068Z,48599.13
2023-04-28T06:33:53.449Z,48620.66
2023-04-28T06:36:19.925Z,48597.16
2023-04-28T06:38:46.866Z,48601.06
2023-04-28T06:41:13.642Z,48591.28
2023-04-28T06:43:40.096Z,48620.66
2023-04-28T06:46:06.921Z,48620.66
2023-04-28T06:48:33.576Z,48628.50
2023-04-28T06:51:00.044Z,48616.75
2023-04-28T06:53:26.421Z,48597.16
2023-04-28T06:55:53.073Z,48618.72
2023-04-28T06:58:20.799Z,48597.16
2023-04-28T07:00:47.273Z,48595.19
2023-04-28T07:03:14.847Z,48608.91
2023-04-28T07:05:41.359Z,48591.28
2023-04-28T07:08:07.921Z,48620.66
2023-04-28T07:10:34.303Z,48648.09
2023-04-28T07:13:00.834Z,48616.75
2023-04-28T07:15:28.071Z,48636.34
2023-04-28T07:17:54.553Z,48606.94
2023-04-28T07:20:21.405Z,48620.66
2023-04-28T07:22:48.111Z,48597.16
2023-04-28T07:25:14.909Z,48618.72
2023-04-28T07:27:41.711Z,48608.91
2023-04-28T07:30:25.036Z,48593.25
2023-04-28T07:32:53.649Z,48608.91
2023-04-28T07:35:20.065Z,48628.50
2023-04-28T07:37:46.736Z,48628.50
2023-04-28T07:40:13.204Z,48620.66
2023-04-28T07:42:39.955Z,48632.41
2023-04-28T07:45:07.052Z,48650.06
2023-04-28T07:47:34.012Z,48648.09
2023-04-28T07:50:04.713Z,48628.50
2023-04-28T07:52:32.263Z,48659.84
2023-04-28T07:54:59.484Z,48683.34
2023-04-28T07:57:26.827Z,48695.09
2023-04-28T07:59:53.213Z,48687.28
2023-04-28T08:02:20.692Z,48691.19
2023-04-28T08:04:47.800Z,48706.84
2023-04-28T08:07:14.408Z,48693.16
2023-04-28T08:09:42.840Z,48702.94
2023-04-28T08:12:09.245Z,48734.28
2023-04-28T08:14:35.858Z,48777.38
2023-04-28T08:17:02.622Z,48773.47
2023-04-28T08:19:29.011Z,48800.88
2023-04-28T08:21:55.417Z,48808.72
2023-04-28T08:24:21.765Z,48845.94
2023-04-28T08:26:48.222Z,48820.47
2023-04-28T08:29:14.733Z,48828.31
2023-04-28T08:31:41.485Z,48832.22
2023-04-28T08:34:07.870Z,48834.19
2023-04-28T08:36:35.012Z,48900.78
2023-04-28T08:39:03.637Z,48883.16
2023-04-28T08:41:33.325Z,48879.25
2023-04-28T08:43:59.718Z,48879.25
2023-04-28T08:46:27.996Z,48914.50
2023-04-28T08:49:00.866Z,48894.91
2023-04-28T08:51:56.228Z,48906.69
2023-04-28T08:54:26.909Z,48887.09
2023-04-28T08:56:55.766Z,48894.91
2023-04-28T08:59:22.307Z,48906.69
2023-04-28T09:01:50.388Z,48918.44
2023-04-28T09:04:21.303Z,48902.75
2023-04-28T09:06:48.481Z,48902.75
2023-04-28T09:09:34.145Z,48898.84
2023-04-28T09:12:04.951Z,48922.34
2023-04-28T09:14:33.809Z,48902.75
2023-04-28T09:17:01.635Z,48928.22
2023-04-28T09:19:36.345Z,48926.25
2023-04-28T09:22:13.738Z,48934.09
2023-04-28T09:24:50.145Z,48908.63
2023-04-28T09:27:18.536Z,48924.31
2023-04-28T09:29:54.561Z,48914.50
2023-04-28T09:32:23.205Z,48914.50
2023-04-28T09:34:51.655Z,48910.59
2023-04-28T09:37:20.528Z,48918.44
2023-04-28T09:39:49.700Z,48910.59
2023-04-28T09:42:34.826Z,48906.69
2023-04-28T09:45:03.325Z,48896.88
2023-04-28T09:47:34.892Z,48894.91
2023-04-28T09:50:04.767Z,48892.97
2023-04-28T09:52:33.326Z,48887.09
2023-04-28T09:55:02.731Z,48887.09
2023-04-28T09:57:34.743Z,48883.16
2023-04-28T10:00:02.611Z,48883.16
2023-04-28T10:04:59.170Z,48881.22
2023-04-28T10:07:27.046Z,48883.16
2023-04-28T10:09:55.165Z,48871.41
2023-04-28T10:12:22.341Z,48867.50
2023-04-28T10:14:50.552Z,48863.56
2023-04-28T10:17:17.713Z,48859.66
2023-04-28T10:19:46.022Z,48857.69
2023-04-28T10:22:39.087Z,48861.63
2023-04-28T10:25:15.492Z,48855.75
2023-04-28T10:27:43.829Z,48849.88
2023-04-28T10:30:27.609Z,48855.75
2023-04-28T10:33:13.453Z,48844.00
2023-04-28T10:35:45.430Z,48845.94
2023-04-28T10:38:16.262Z,48845.94
2023-04-28T10:40:46.962Z,48840.06
2023-04-28T10:43:34.865Z,48838.09
2023-04-28T10:46:03.797Z,48824.41
2023-04-28T10:48:30.926Z,48824.41
2023-04-28T10:51:09.815Z,48814.59
2023-04-28T10:53:46.000Z,48812.63
2023-04-28T10:56:16.917Z,48818.53
2023-04-28T10:58:49.284Z,48820.47
2023-04-28T11:01:18.847Z,48814.59
2023-04-28T11:03:51.803Z,48816.56
2023-04-28T11:06:21.885Z,48816.56
2023-04-28T11:08:48.724Z,48816.56
2023-04-28T11:11:16.947Z,48808.72
2023-04-28T11:13:46.744Z,48820.47
2023-04-28T11:16:21.183Z,48816.56
2023-04-28T11:18:57.470Z,48810.69
2023-04-28T11:21:25.881Z,48808.72
2023-04-28T11:23:52.817Z,48810.69
2023-04-28T11:26:19.832Z,48816.56
2023-04-28T11:28:51.327Z,48812.63
2023-04-28T11:31:20.606Z,48812.63
2023-04-28T11:33:56.689Z,48808.72
2023-04-28T11:36:26.494Z,48808.72
2023-04-28T11:38:52.939Z,48816.56
2023-04-28T11:41:19.538Z,48820.47
2023-04-28T11:43:47.646Z,48818.53
2023-04-28T11:46:23.058Z,48820.47
2023-04-28T11:48:59.454Z,48816.56
2023-04-28T11:51:38.461Z,48814.59
2023-04-28T11:54:12.128Z,48812.63
2023-04-28T11:56:39.912Z,48810.69
2023-04-28T11:59:11.578Z,48810.69
2023-04-28T12:01:59.576Z,48812.63
2023-04-28T12:04:40.306Z,48808.72
2023-04-28T12:07:10.850Z,48812.63
2023-04-28T12:09:42.367Z,48810.69
2023-04-28T12:12:12.398Z,48812.63
2023-04-28T12:14:59.953Z,48808.72
2023-04-28T12:17:31.578Z,48820.47
2023-04-28T12:20:01.147Z,48812.63
2023-04-28T12:22:28.166Z,48810.69
2023-04-28T12:25:08.591Z,48812.63
2023-04-28T12:27:39.194Z,48812.63
2023-04-28T12:30:20.878Z,48816.56
2023-04-28T12:32:48.004Z,48816.56
2023-04-28T12:35:14.542Z,48812.63
2023-04-28T12:37:42.550Z,48808.72
2023-04-28T12:40:09.972Z,48810.69
2023-04-28T12:42:36.839Z,48810.69
2023-04-28T12:45:03.775Z,48812.63
2023-04-28T12:47:32.099Z,48812.63
2023-04-28T12:49:58.537Z,48808.72
2023-04-28T12:52:24.916Z,48816.56
2023-04-28T12:54:51.433Z,48808.72
2023-04-28T12:57:19.733Z,48812.63
2023-04-28T12:59:49.236Z,48812.63
2023-04-28T13:02:15.860Z,48816.56
2023-04-28T13:04:43.155Z,48808.72
2023-04-28T13:07:09.753Z,48814.59
2023-04-28T13:09:38.459Z,48808.72
2023-04-28T13:12:05.197Z,48808.72
2023-04-28T13:14:32.110Z,48816.56
2023-04-28T13:16:59.142Z,48818.53
2023-04-28T13:19:25.648Z,48808.72
2023-04-28T13:21:52.180Z,48810.69
2023-04-28T13:24:18.567Z,48812.63
2023-04-28T13:26:45.443Z,48816.56
2023-04-28T13:29:12.361Z,48816.56
2023-04-28T13:31:38.822Z,48816.56
2023-04-28T13:34:06.126Z,48804.81
2023-04-28T13:36:33.132Z,48806.75
2023-04-28T13:39:01.693Z,48806.75
2023-04-28T13:41:28.859Z,48816.56
2023-04-28T13:43:55.621Z,48806.75
2023-04-28T13:46:22.520Z,48816.56
2023-04-28T13:48:50.442Z,48804.81
2023-04-28T13:51:17.150Z,48814.59
2023-04-28T13:53:43.788Z,48808.72
2023-04-28T13:56:10.901Z,48812.63
2023-04-28T13:58:37.367Z,48806.75
2023-04-28T14:01:04.397Z,48808.72
2023-04-28T14:03:31.179Z,48804.81
2023-04-28T14:05:58.582Z,48808.72
2023-04-28T14:08:27.109Z,48804.81
2023-04-28T14:10:54.442Z,48810.69
2023-04-28T14:13:21.190Z,48812.63
2023-04-28T14:15:57.814Z,48808.72
2023-04-28T14:18:26.419Z,48806.75
2023-04-28T14:20:54.519Z,48810.69
2023-04-28T14:23:22.780Z,48814.59
2023-04-28T14:25:50.087Z,48808.72
2023-04-28T14:28:16.946Z,48804.81
2023-04-28T14:30:43.698Z,48804.81
2023-04-28T14:33:10.473Z,48808.72
2023-04-28T14:35:37.415Z,48808.72
2023-04-28T14:38:04.315Z,48808.72
2023-04-28T14:40:30.882Z,48814.59
2023-04-28T14:42:57.594Z,48804.81
2023-04-28T14:45:24.192Z,48816.56
2023-04-28T14:47:50.692Z,48808.72
2023-04-28T14:50:18.465Z,48814.59
2023-04-28T14:52:45.101Z,48806.75
2023-04-28T14:55:11.650Z,48810.69
2023-04-28T14:57:38.594Z,48808.72
2023-04-28T15:00:07.934Z,48806.75
2023-04-28T15:02:35.945Z,48808.72
2023-04-28T15:05:02.806Z,48802.84
2023-04-28T15:07:31.511Z,48808.72
2023-04-28T15:09:59.647Z,48806.75
2023-04-28T15:12:26.931Z,48806.75
2023-04-28T15:14:53.935Z,48810.69
2023-04-28T15:17:24.256Z,48804.81
2023-04-28T15:19:51.063Z,48808.72
2023-04-28T15:22:17.846Z,48804.81
2023-04-28T15:24:44.212Z,48808.72
2023-04-28T15:27:10.960Z,48804.81
2023-04-28T15:29:37.460Z,48804.81
2023-04-28T15:32:05.071Z,48804.81
2023-04-28T15:34:31.420Z,48812.63
2023-04-28T15:36:57.862Z,48808.72
2023-04-28T15:39:25.561Z,48814.59
2023-04-28T15:41:52.908Z,48808.72
2023-04-28T15:44:19.833Z,48808.72
2023-04-28T15:46:46.323Z,48812.63
2023-04-28T15:49:13.298Z,48800.88
2023-04-28T15:51:39.893Z,48804.81
2023-04-28T15:54:06.296Z,48804.81
2023-04-28T15:56:33.751Z,48808.72
2023-04-28T15:59:00.953Z,48804.81
2023-04-28T16:01:28.047Z,48806.75
2023-04-28T16:03:54.750Z,48804.81
2023-04-28T16:06:21.275Z,48804.81
2023-04-28T16:08:47.649Z,48806.75
2023-04-28T16:11:17.729Z,48804.81
2023-04-28T16:13:44.980Z,48804.81
2023-04-28T16:16:12.352Z,48802.84
2023-04-28T16:18:39.228Z,48800.88
2023-04-28T16:21:06.242Z,48812.63
2023-04-28T16:23:32.805Z,48808.72
2023-04-28T16:25:59.216Z,48806.75
2023-04-28T16:28:26.267Z,48808.72
2023-04-28T16:30:52.661Z,48808.72
2023-04-28T16:33:19.113Z,48808.72
2023-04-28T16:35:53.590Z,48804.81
2023-04-28T16:38:20.634Z,48808.72
2023-04-28T16:40:47.350Z,48808.72
2023-04-28T16:43:14.331Z,48814.59
2023-04-28T16:45:41.282Z,48812.63
2023-04-28T16:48:07.812Z,48802.84
2023-04-28T16:50:34.261Z,48806.75
2023-04-28T16:53:00.657Z,48804.81
2023-04-28T16:55:27.432Z,48806.75
2023-04-28T16:57:53.974Z,48806.75
2023-04-28T17:00:21.270Z,48808.72
2023-04-28T17:02:47.868Z,48812.63
2023-04-28T17:05:14.400Z,48806.75
2023-04-28T17:07:40.864Z,48804.81
2023-04-28T17:10:07.808Z,48800.88
2023-04-28T17:12:34.204Z,48806.75
2023-04-28T17:15:00.738Z,48804.81
2023-04-28T17:17:27.207Z,48806.75
2023-04-28T17:19:53.755Z,48806.75
2023-04-28T17:22:20.252Z,48804.81
2023-04-28T17:24:46.683Z,48808.72
2023-04-28T17:27:14.639Z,48806.75
2023-04-28T17:29:42.678Z,48804.81
2023-04-28T17:32:09.310Z,48806.75
2023-04-28T17:34:35.728Z,48800.88
2023-04-28T17:37:02.117Z,48804.81
2023-04-28T17:39:28.513Z,48804.81
2023-04-28T17:41:55.643Z,48804.81
2023-04-28T17:44:22.236Z,48812.63
2023-04-28T17:46:48.726Z,48814.59
2023-04-28T17:49:15.217Z,48808.72
2023-04-28T17:51:41.647Z,48804.81
2023-04-28T17:54:09.557Z,48804.81
2023-04-28T17:56:37.993Z,48810.69
2023-04-28T17:59:05.269Z,48804.81
2023-04-28T18:01:37.512Z,48806.75
2023-04-28T18:04:04.240Z,48806.75
2023-04-28T18:06:30.650Z,48804.81
2023-04-28T18:08:57.071Z,48808.72
2023-04-28T18:11:23.614Z,48804.81
2023-04-28T18:13:50.132Z,48808.72
2023-04-28T18:16:16.842Z,48806.75
2023-04-28T18:18:43.729Z,48808.72
2023-04-28T18:21:10.389Z,48808.72
2023-04-28T18:23:37.821Z,48802.84
2023-04-28T18:26:04.268Z,48806.75
2023-04-28T18:28:30.845Z,48808.72
2023-04-28T18:30:57.204Z,48804.81
2023-04-28T18:33:28.418Z,48804.81
2023-04-28T18:36:04.701Z,48808.72
2023-04-28T18:38:34.413Z,48804.81
2023-04-28T18:41:02.147Z,48806.75
2023-04-28T18:43:28.599Z,48804.81
2023-04-28T18:45:55.135Z,48808.72
2023-04-28T18:48:21.629Z,48808.72
2023-04-28T18:50:48.676Z,48812.63
2023-04-28T18:53:15.624Z,48806.75
2023-04-28T18:55:42.011Z,48804.81
2023-04-28T18:58:08.448Z,48800.88
2023-04-28T19:00:37.014Z,48804.81
2023-04-28T19:03:04.085Z,48804.81
2023-04-28T19:05:31.051Z,48804.81
2023-04-28T19:07:57.506Z,48804.81
2023-04-28T19:10:23.958Z,48808.72
2023-04-28T19:12:50.531Z,48812.63
2023-04-28T19:15:17.245Z,48804.81
2023-04-28T19:17:44.375Z,48806.75
2023-04-28T19:20:11.317Z,48804.81
2023-04-28T19:22:41.253Z,48802.84
2023-04-28T19:25:08.976Z,48804.81
2023-04-28T19:27:37.538Z,48812.63
2023-04-28T19:30:06.249Z,48804.81
2023-04-28T19:32:33.324Z,48806.75
2023-04-28T19:35:00.245Z,48804.81
2023-04-28T19:37:27.240Z,48814.59
2023-04-28T19:39:53.763Z,48804.81
2023-04-28T19:42:20.244Z,48808.72
2023-04-28T19:44:47.665Z,48808.72
2023-04-28T19:47:25.467Z,48808.72
2023-04-28T19:49:52.687Z,48806.75
2023-04-28T19:52:20.861Z,48806.75
2023-04-28T19:54:48.366Z,48804.81
2023-04-28T19:57:15.574Z,48808.72
2023-04-28T19:59:42.066Z,48812.63
2023-04-28T20:02:09.940Z,48812.63
2023-04-28T20:04:37.967Z,48808.72
2023-04-28T20:07:05.506Z,48804.81
2023-04-28T20:09:36.220Z,48808.72
2023-04-28T20:12:05.421Z,48802.84
2023-04-28T20:14:32.852Z,48804.81
2023-04-28T20:16:59.219Z,48804.81
2023-04-28T20:19:25.627Z,48804.81
2023-04-28T20:21:52.380Z,48812.63
2023-04-28T20:24:19.454Z,48812.63
2023-04-28T20:26:46.017Z,48804.81
2023-04-28T20:29:12.472Z,48806.75
2023-04-28T20:31:39.587Z,48804.81
2023-04-28T20:34:06.531Z,48804.81
2023-04-28T20:36:33.204Z,48804.81
2023-04-28T20:38:59.581Z,48804.81
2023-04-28T20:41:26.363Z,48812.63
2023-04-28T20:43:54.374Z,48812.63
2023-04-28T20:46:21.367Z,48806.75
2023-04-28T20:48:47.971Z,48812.63
2023-04-28T20:51:14.351Z,48808.72
2023-04-28T20:53:40.731Z,48804.81
2023-04-28T20:56:07.293Z,48808.72
2023-04-28T20:58:35.080Z,48808.72
2023-04-28T21:01:02.479Z,48808.72
2023-04-28T21:03:30.596Z,48804.81
2023-04-28T21:05:57.133Z,48806.75
2023-04-28T21:08:23.497Z,48804.81
2023-04-28T21:10:50.151Z,48804.81
2023-04-28T21:13:16.529Z,48804.81
2023-04-28T21:15:43.236Z,48812.63
2023-04-28T21:18:09.787Z,48808.72
2023-04-28T21:20:36.295Z,48802.84
2023-04-28T21:23:02.810Z,48812.63
2023-04-28T21:25:29.548Z,48804.81
2023-04-28T21:27:55.935Z,48812.63
2023-04-28T21:30:22.819Z,48808.72
2023-04-28T21:32:49.371Z,48804.81
2023-04-28T21:35:16.669Z,48808.72
2023-04-28T21:37:43.110Z,48804.81
2023-04-28T21:40:09.846Z,48812.63
2023-04-28T21:42:36.285Z,48810.69
2023-04-28T21:45:02.847Z,48808.72
2023-04-28T21:47:30.174Z,48808.72
2023-04-28T21:49:56.830Z,48808.72
2023-04-28T21:52:23.666Z,48808.72
2023-04-28T21:54:50.098Z,48808.72
2023-04-28T21:57:16.812Z,48820.47
2023-04-28T21:59:43.207Z,48812.63
2023-04-28T22:02:10.061Z,48808.72
2023-04-28T22:04:36.596Z,48812.63
2023-04-28T22:07:04.198Z,48808.72
2023-04-28T22:09:31.337Z,48810.69
2023-04-28T22:11:57.742Z,48808.72
2023-04-28T22:14:39.434Z,48812.63
2023-04-28T22:17:07.649Z,48808.72
2023-04-28T22:19:34.074Z,48814.59
2023-04-28T22:22:00.880Z,48818.53
2023-04-28T22:24:27.871Z,48810.69
2023-04-28T22:26:55.203Z,48808.72
2023-04-28T22:29:21.978Z,48812.63
2023-04-28T22:31:48.919Z,48808.72
2023-04-28T22:34:16.411Z,48812.63
2023-04-28T22:36:43.177Z,48808.72
2023-04-28T22:39:09.600Z,48810.69
2023-04-28T22:41:36.070Z,48804.81
2023-04-28T22:44:02.603Z,48816.56
2023-04-28T22:46:29.912Z,48812.63
2023-04-28T22:48:56.402Z,48808.72
2023-04-28T22:51:23.838Z,48808.72
2023-04-28T22:53:50.408Z,48806.75
2023-04-28T22:56:17.194Z,48816.56
2023-04-28T22:58:43.598Z,48812.63
2023-04-28T23:01:10.078Z,48808.72
2023-04-28T23:03:38.212Z,48808.72
2023-04-28T23:06:05.054Z,48812.63
2023-04-28T23:08:31.620Z,48812.63
2023-04-28T23:10:58.001Z,48808.72
2023-04-28T23:13:25.041Z,48814.59
2023-04-28T23:15:51.486Z,48804.81
2023-04-28T23:18:17.876Z,48812.63
2023-04-28T23:20:47.313Z,48804.81
2023-04-28T23:23:13.674Z,48812.63
2023-04-28T23:25:43.217Z,48808.72
2023-04-28T23:28:10.244Z,48806.75
2023-04-28T23:30:36.661Z,48808.72
2023-04-28T23:33:03.198Z,48816.56
2023-04-28T23:35:29.593Z,48816.56
2023-04-28T23:37:56.486Z,48810.69
2023-04-28T23:40:22.962Z,48808.72
2023-04-28T23:42:49.477Z,48806.75
2023-04-28T23:45:16.037Z,48806.75
2023-04-28T23:47:42.841Z,48808.72
2023-04-28T23:50:09.789Z,48808.72
2023-04-28T23:52:40.410Z,48810.69
2023-04-28T23:55:10.645Z,48816.56
2023-04-28T23:57:37.651Z,48810.69
